createdAt,value
2022-10-11T00:00:13.163Z,96065.50
2022-10-11T00:02:54.997Z,96069.78
2022-10-11T00:05:37.196Z,96077.06
2022-10-11T00:08:17.649Z,96081.41
2022-10-11T00:11:01.635Z,96077.34
2022-10-11T00:13:42.008Z,96078.19
2022-10-11T00:16:23.621Z,96080.91
2022-10-11T00:19:05.825Z,96076.56
2022-10-11T00:21:46.808Z,96083.56
2022-10-11T00:24:27.653Z,96076.84
2022-10-11T00:27:09.096Z,96078.72
2022-10-11T00:29:50.438Z,96087.06
2022-10-11T00:32:33.732Z,96083.81
2022-10-11T00:35:14.899Z,96091.09
2022-10-11T00:37:58.295Z,96094.34
2022-10-11T00:40:40.830Z,96084.91
2022-10-11T00:43:26.128Z,96080.59
2022-10-11T00:46:31.788Z,96086.00
2022-10-11T00:49:28.057Z,96087.88
2022-10-11T00:52:18.445Z,96095.16
2022-10-11T00:55:04.863Z,96097.03
2022-10-11T00:57:50.000Z,96085.69
2022-10-11T01:00:34.325Z,96091.09
2022-10-11T01:03:19.470Z,96094.59
2022-10-11T01:06:01.698Z,96086.81
2022-10-11T01:08:49.476Z,96091.38
2022-10-11T01:11:35.228Z,96082.50
2022-10-11T01:14:58.956Z,96077.09
2022-10-11T01:17:54.642Z,96087.63
2022-10-11T01:21:02.357Z,96078.47
2022-10-11T01:24:38.610Z,96086.81
2022-10-11T01:27:53.206Z,96080.59
2022-10-11T01:30:37.830Z,96081.41
2022-10-11T01:33:38.580Z,96090.84
2022-10-11T01:36:31.563Z,96086.50
2022-10-11T01:39:23.249Z,96097.81
2022-10-11T01:42:10.887Z,96090.81
2022-10-11T01:44:55.159Z,96086.47
2022-10-11T01:47:36.217Z,96085.41
2022-10-11T01:50:44.370Z,96086.22
2022-10-11T01:53:51.509Z,96084.91
2022-10-11T01:57:14.513Z,96085.72
2022-10-11T02:00:05.411Z,96077.38
2022-10-11T02:03:18.898Z,96077.91
2022-10-11T02:06:09.576Z,96079.53
2022-10-11T02:09:00.192Z,96084.13
2022-10-11T02:11:44.981Z,96074.66
2022-10-11T02:14:28.985Z,96070.38
2022-10-11T02:17:15.422Z,96067.94
2022-10-11T02:19:59.585Z,96063.63
2022-10-11T02:22:45.380Z,96066.06
2022-10-11T02:25:31.831Z,96057.69
2022-10-11T02:28:21.766Z,96054.44
2022-10-11T02:31:05.920Z,96062.22
2022-10-11T02:33:57.836Z,96050.91
2022-10-11T02:36:49.039Z,96057.34
2022-10-11T02:39:38.432Z,96063.56
2022-10-11T02:42:26.352Z,96060.06
2022-10-11T02:45:17.048Z,96061.38
2022-10-11T02:47:58.918Z,96057.59
2022-10-11T02:50:42.759Z,96071.31
2022-10-11T02:53:25.397Z,96074.28
2022-10-11T02:56:19.386Z,96079.66
2022-10-11T02:59:00.004Z,96083.16
2022-10-11T03:01:41.546Z,96089.63
2022-10-11T03:04:22.882Z,96089.38
2022-10-11T03:07:04.565Z,96094.75
2022-10-11T03:09:45.938Z,96096.63
2022-10-11T03:12:27.199Z,96096.38
2022-10-11T03:15:10.248Z,96100.69
2022-10-11T03:17:52.526Z,96099.63
2022-10-11T03:20:33.497Z,96112.84
2022-10-11T03:23:24.003Z,96107.19
2022-10-11T03:26:09.185Z,96109.88
2022-10-11T03:28:49.962Z,96114.47
2022-10-11T03:31:31.387Z,96122.81
2022-10-11T03:34:12.802Z,96125.50
2022-10-11T03:36:54.277Z,96120.63
2022-10-11T03:39:35.872Z,96122.78
2022-10-11T03:42:17.053Z,96131.94
2022-10-11T03:44:59.750Z,96133.00
2022-10-11T03:47:42.202Z,96134.88
2022-10-11T03:50:22.937Z,96129.50
2022-10-11T03:53:05.547Z,96132.75
2022-10-11T03:55:47.489Z,96136.25
2022-10-11T03:58:28.675Z,96128.97
2022-10-11T04:01:10.769Z,96133.03
2022-10-11T04:03:56.276Z,96131.97
2022-10-11T04:06:39.724Z,96132.53
2022-10-11T04:09:21.554Z,96134.16
2022-10-11T04:12:04.812Z,96131.44
2022-10-11T04:14:46.914Z,96132.53
2022-10-11T04:17:28.506Z,96127.66
2022-10-11T04:20:11.700Z,96134.91
2022-10-11T04:22:52.556Z,96134.09
2022-10-11T04:25:34.074Z,96133.28
2022-10-11T04:28:15.881Z,96128.41
2022-10-11T04:30:56.801Z,96130.84
2022-10-11T04:33:38.360Z,96133.81
2022-10-11T04:36:19.729Z,96133.53
2022-10-11T04:39:01.681Z,96133.81
2022-10-11T04:41:42.610Z,96125.72
2022-10-11T04:44:23.974Z,96129.22
2022-10-11T04:47:05.583Z,96130.03
2022-10-11T04:49:46.885Z,96132.72
2022-10-11T04:52:28.223Z,96140.81
2022-10-11T04:55:11.044Z,96128.66
2022-10-11T04:57:52.482Z,96138.38
2022-10-11T05:00:46.556Z,96138.63
2022-10-11T05:03:29.235Z,96140.78
2022-10-11T05:06:10.314Z,96139.16
2022-10-11T05:08:51.382Z,96137.22
2022-10-11T05:11:33.110Z,96143.13
2022-10-11T05:14:14.218Z,96140.94
2022-10-11T05:16:55.633Z,96145.47
2022-10-11T05:19:36.999Z,96152.47
2022-10-11T05:22:18.408Z,96151.91
2022-10-11T05:24:59.801Z,96151.34
2022-10-11T05:27:41.317Z,96157.81
2022-10-11T05:30:22.649Z,96155.94
2022-10-11T05:33:04.025Z,96155.94
2022-10-11T05:35:45.686Z,96152.44
2022-10-11T05:38:28.097Z,96162.13
2022-10-11T05:41:11.610Z,96158.38
2022-10-11T05:43:52.920Z,96158.91
2022-10-11T05:46:34.324Z,96160.25
2022-10-11T05:49:16.687Z,96166.22
2022-10-11T05:51:58.785Z,96176.47
2022-10-11T05:54:40.121Z,96180.53
2022-10-11T05:57:21.501Z,96177.34
2022-10-11T06:00:03.257Z,96178.69
2022-10-11T06:02:54.002Z,96183.56
2022-10-11T06:05:36.601Z,96179.56
2022-10-11T06:08:18.321Z,96187.94
2022-10-11T06:11:15.200Z,96187.44
2022-10-11T06:14:07.176Z,96180.16
2022-10-11T06:17:07.780Z,96185.34
2022-10-11T06:20:03.833Z,96191.84
2022-10-11T06:23:05.209Z,96181.38
2022-10-11T06:26:12.889Z,96190.31
2022-10-11T06:29:13.525Z,96192.19
2022-10-11T06:32:13.186Z,96193.03
2022-10-11T06:35:20.940Z,96189.88
2022-10-11T06:38:15.994Z,96194.22
2022-10-11T06:41:15.131Z,96198.03
2022-10-11T06:44:16.678Z,96199.94
2022-10-11T06:47:11.276Z,96204.81
2022-10-11T06:50:40.710Z,96207.81
2022-10-11T06:53:49.157Z,96209.72
2022-10-11T06:56:44.692Z,96200.03
2022-10-11T06:59:39.228Z,96206.53
2022-10-11T07:02:38.215Z,96213.56
2022-10-11T07:05:36.754Z,96211.97
2022-10-11T07:08:35.775Z,96203.91
2022-10-11T07:11:28.648Z,96208.22
2022-10-11T07:14:35.155Z,96212.28
2022-10-11T07:17:32.948Z,96222.00
2022-10-11T07:20:27.572Z,96216.91
2022-10-11T07:23:25.846Z,96217.44
2022-10-11T07:26:23.731Z,96218.28
2022-10-11T07:29:21.730Z,96224.75
2022-10-11T07:32:17.315Z,96223.16
2022-10-11T07:35:28.061Z,96232.09
2022-10-11T07:38:27.211Z,96229.66
2022-10-11T07:41:22.585Z,96230.25
2022-10-11T07:44:30.373Z,96237.25
2022-10-11T07:47:28.802Z,96234.03
2022-10-11T07:50:28.327Z,96240.78
2022-10-11T07:53:23.092Z,96239.19
2022-10-11T07:56:30.605Z,96242.16
2022-10-11T07:59:31.490Z,96235.97
2022-10-11T08:02:26.673Z,96239.22
2022-10-11T08:05:28.293Z,96247.06
2022-10-11T08:08:25.694Z,96249.75
2022-10-11T08:11:26.906Z,96250.03
2022-10-11T08:14:26.291Z,96247.31
2022-10-11T08:17:25.137Z,96254.63
2022-10-11T08:20:24.114Z,96258.41
2022-10-11T08:23:25.340Z,96262.19
2022-10-11T08:26:26.102Z,96255.19
2022-10-11T08:29:35.844Z,96260.88
2022-10-11T08:32:31.217Z,96260.13
2022-10-11T08:35:30.515Z,96261.75
2022-10-11T08:38:31.519Z,96264.72
2022-10-11T08:41:42.765Z,96257.97
2022-10-11T08:47:46.464Z,96266.88
2022-10-11T08:50:21.737Z,96270.13
2022-10-11T08:52:56.825Z,96268.50
2022-10-11T08:55:38.330Z,96272.00
2022-10-11T08:58:10.414Z,96274.19
2022-10-11T09:00:43.346Z,96273.09
2022-10-11T09:03:36.348Z,96272.78
2022-10-11T09:06:32.271Z,96279.81
2022-10-11T09:09:23.197Z,96286.31
2022-10-11T09:12:12.209Z,96279.22
2022-10-11T09:15:22.231Z,96275.16
2022-10-11T09:18:18.573Z,96272.72
2022-10-11T09:21:08.790Z,96269.75
2022-10-11T09:24:22.788Z,96267.56
2022-10-11T09:26:57.614Z,96273.53
2022-10-11T09:29:49.942Z,96273.25
2022-10-11T09:32:21.903Z,96269.69
2022-10-11T09:35:02.021Z,96266.16
2022-10-11T09:37:39.030Z,96259.13
2022-10-11T09:40:37.622Z,96261.28
2022-10-11T09:43:07.005Z,96263.69
2022-10-11T09:45:36.530Z,96261.22
2022-10-11T09:48:08.594Z,96255.47
2022-10-11T09:50:41.402Z,96259.25
2022-10-11T09:53:11.041Z,96260.53
2022-10-11T09:55:50.251Z,96257.81
2022-10-11T09:58:31.523Z,96263.69
2022-10-11T10:01:08.528Z,96257.75
2022-10-11T10:03:42.127Z,96256.94
2022-10-11T10:06:20.707Z,96260.44
2022-10-11T10:08:50.640Z,96253.41
2022-10-11T10:11:21.038Z,96253.94
2022-10-11T10:13:55.952Z,96251.47
2022-10-11T10:16:30.569Z,96259.09
2022-10-11T10:19:03.737Z,96254.72
2022-10-11T10:21:39.010Z,96255.25
2022-10-11T10:24:19.952Z,96264.19
2022-10-11T10:27:20.880Z,96264.72
2022-10-11T10:30:18.206Z,96257.69
2022-10-11T10:32:56.891Z,96262.53
2022-10-11T10:35:36.192Z,96264.88
2022-10-11T10:38:21.721Z,96260.25
2022-10-11T10:40:58.107Z,96266.69
2022-10-11T10:43:34.525Z,96263.38
2022-10-11T10:46:25.300Z,96262.22
2022-10-11T10:52:13.755Z,96261.81
2022-10-11T10:54:55.372Z,96260.09
2022-10-11T10:57:34.669Z,96259.47
2022-10-11T11:00:15.675Z,96251.81
2022-10-11T11:03:07.105Z,96252.56
2022-10-11T11:05:49.671Z,96256.53
2022-10-11T11:08:42.085Z,96248.56
2022-10-11T11:11:35.906Z,96246.31
2022-10-11T11:14:24.521Z,96244.84
2022-10-11T11:17:07.096Z,96237.97
2022-10-11T11:19:58.677Z,96241.97
2022-10-11T11:22:42.231Z,96241.13
2022-10-11T11:25:30.971Z,96241.94
2022-10-11T11:28:24.242Z,96233.22
2022-10-11T11:31:06.864Z,96245.22
2022-10-11T11:33:52.864Z,96237.16
2022-10-11T11:36:36.596Z,96235.25
2022-10-11T11:39:14.724Z,96231.16
2022-10-11T11:41:52.528Z,96231.38
2022-10-11T11:44:30.725Z,96239.31
2022-10-11T11:47:05.823Z,96229.78
2022-10-11T11:49:39.898Z,96224.81
2022-10-11T11:52:27.983Z,96225.88
2022-10-11T11:55:10.568Z,96229.59
2022-10-11T11:58:06.062Z,96226.00
2022-10-11T12:00:50.244Z,96222.13
2022-10-11T12:03:26.640Z,96224.47
2022-10-11T12:06:24.342Z,96222.63
2022-10-11T12:09:09.620Z,96224.84
2022-10-11T12:11:52.856Z,96217.03
2022-10-11T12:14:37.353Z,96220.84
2022-10-11T12:17:20.437Z,96212.88
2022-10-11T12:20:17.720Z,96207.03
2022-10-11T12:23:00.224Z,96212.09
2022-10-11T12:25:43.895Z,96206.44
2022-10-11T12:29:28.693Z,96205.84
2022-10-11T12:32:53.342Z,96204.84
2022-10-11T12:36:07.545Z,96195.75
2022-10-11T12:38:41.924Z,96197.84
2022-10-11T12:41:51.136Z,96197.84
2022-10-11T12:44:27.098Z,96194.91
2022-10-11T12:47:36.539Z,96198.81
2022-10-11T12:50:20.381Z,96193.72
2022-10-11T12:53:02.163Z,96200.19
2022-10-11T12:55:51.616Z,96190.13
2022-10-11T12:58:41.496Z,96184.97
2022-10-11T13:01:19.739Z,96193.66
2022-10-11T13:04:04.715Z,96193.44
2022-10-11T13:06:39.649Z,96189.28
2022-10-11T13:09:24.580Z,96183.66
2022-10-11T13:12:00.977Z,96191.09
2022-10-11T13:14:37.506Z,96188.47
2022-10-11T13:17:17.669Z,96186.31
2022-10-11T13:19:48.041Z,96189.63
2022-10-11T13:22:24.084Z,96191.25
2022-10-11T13:24:57.792Z,96188.75
2022-10-11T13:27:28.979Z,96185.81
2022-10-11T13:30:03.259Z,96194.19
2022-10-11T13:32:35.106Z,96198.22
2022-10-11T13:35:19.810Z,96197.97
2022-10-11T13:37:53.565Z,96195.28
2022-10-11T13:40:24.657Z,96188.91
2022-10-11T13:42:55.345Z,96184.25
2022-10-11T13:45:30.498Z,96189.91
2022-10-11T13:47:59.982Z,96188.00
2022-10-11T13:50:33.760Z,96190.81
2022-10-11T13:53:24.491Z,96188.00
2022-10-11T13:55:58.889Z,96182.75
2022-10-11T13:58:35.179Z,96191.00
2022-10-11T14:01:18.591Z,96182.53
2022-10-11T14:03:55.188Z,96176.38
2022-10-11T14:06:25.492Z,96177.69
2022-10-11T14:08:59.165Z,96179.19
2022-10-11T14:11:39.852Z,96175.06
2022-10-11T14:14:48.773Z,96178.94
2022-10-11T14:17:24.600Z,96173.66
2022-10-11T14:20:18.322Z,96169.63
2022-10-11T14:22:48.447Z,96170.03
2022-10-11T14:25:20.054Z,96171.97
2022-10-11T14:27:50.530Z,96181.41
2022-10-11T14:30:26.132Z,96173.25
2022-10-11T14:32:59.217Z,96170.63
2022-10-11T14:35:33.412Z,96169.38
2022-10-11T14:38:02.905Z,96171.28
2022-10-11T14:40:34.022Z,96171.13
2022-10-11T14:43:03.417Z,96181.63
2022-10-11T14:45:32.814Z,96177.31
2022-10-11T14:48:02.488Z,96175.44
2022-10-11T14:50:40.385Z,96172.00
2022-10-11T14:53:12.957Z,96167.47
2022-10-11T14:55:44.113Z,96178.59
2022-10-11T14:58:19.253Z,96170.91
2022-10-11T15:00:48.804Z,96182.78
2022-10-11T15:03:18.189Z,96176.69
2022-10-11T15:05:47.573Z,96173.53
2022-10-11T15:08:17.434Z,96171.25
2022-10-11T15:10:48.150Z,96181.72
2022-10-11T15:13:17.536Z,96178.69
2022-10-11T15:15:47.016Z,96170.81
2022-10-11T15:18:21.127Z,96169.63
2022-10-11T15:20:51.737Z,96178.91
2022-10-11T15:23:21.117Z,96184.75
2022-10-11T15:25:51.933Z,96176.16
2022-10-11T15:28:28.262Z,96177.59
2022-10-11T15:30:59.044Z,96178.41
2022-10-11T15:33:28.576Z,96185.50
2022-10-11T15:35:57.975Z,96181.91
2022-10-11T15:38:27.853Z,96184.06
2022-10-11T15:40:59.394Z,96183.16
2022-10-11T15:43:28.867Z,96181.16
2022-10-11T15:45:59.695Z,96184.78
2022-10-11T15:48:29.292Z,96185.53
2022-10-11T15:50:58.659Z,96188.91
2022-10-11T15:53:31.342Z,96196.97
2022-10-11T15:56:03.917Z,96200.94
2022-10-11T15:58:37.276Z,96196.72
2022-10-11T16:01:10.146Z,96191.72
2022-10-11T16:03:39.560Z,96196.72
2022-10-11T16:06:09.764Z,96197.41
2022-10-11T16:08:39.559Z,96202.91
2022-10-11T16:11:12.575Z,96191.34
2022-10-11T16:13:42.012Z,96197.41
2022-10-11T16:16:12.897Z,96194.47
2022-10-11T16:18:42.323Z,96195.38
2022-10-11T16:21:15.508Z,96201.91
2022-10-11T16:23:45.097Z,96198.44
2022-10-11T16:26:17.012Z,96197.94
2022-10-11T16:28:47.593Z,96196.88
2022-10-11T16:31:20.967Z,96194.44
2022-10-11T16:33:52.745Z,96199.31
2022-10-11T16:36:40.421Z,96198.00
2022-10-11T16:39:14.136Z,96200.22
2022-10-11T16:41:45.889Z,96194.81
2022-10-11T16:44:18.960Z,96203.47
2022-10-11T16:46:49.902Z,96205.09
2022-10-11T16:49:22.941Z,96202.66
2022-10-11T16:51:54.386Z,96217.81
2022-10-11T16:54:24.206Z,96201.84
2022-10-11T16:56:55.506Z,96212.97
2022-10-11T16:59:24.887Z,96205.94
2022-10-11T17:01:54.323Z,96206.47
2022-10-11T17:04:23.828Z,96207.03
2022-10-11T17:06:54.964Z,96212.44
2022-10-11T17:09:24.553Z,96214.31
2022-10-11T17:11:55.240Z,96210.81
2022-10-11T17:14:24.673Z,96223.81
2022-10-11T17:16:54.053Z,96214.88
2022-10-11T17:19:23.515Z,96212.47
2022-10-11T17:21:53.228Z,96226.53
2022-10-11T17:24:22.610Z,96222.22
2022-10-11T17:26:51.967Z,96224.94
2022-10-11T17:29:24.050Z,96219.25
2022-10-11T17:31:54.041Z,96217.91
2022-10-11T17:34:25.124Z,96219.53
2022-10-11T17:36:54.791Z,96218.16
2022-10-11T17:39:25.826Z,96218.44
2022-10-11T17:41:55.281Z,96217.41
2022-10-11T17:44:26.076Z,96224.69
2022-10-11T17:46:55.455Z,96216.03
2022-10-11T17:49:24.799Z,96224.97
2022-10-11T17:51:54.569Z,96230.09
2022-10-11T17:54:24.065Z,96215.50
2022-10-11T17:56:54.474Z,96218.78
2022-10-11T17:59:27.460Z,96226.63
2022-10-11T18:01:57.293Z,96217.41
2022-10-11T18:04:29.601Z,96221.47
2022-10-11T18:06:59.125Z,96223.91
2022-10-11T18:09:29.202Z,96216.31
2022-10-11T18:11:58.643Z,96228.75
2022-10-11T18:14:29.432Z,96225.19
2022-10-11T18:17:00.321Z,96228.47
2022-10-11T18:19:29.836Z,96215.50
2022-10-11T18:22:02.045Z,96218.19
2022-10-11T18:24:35.810Z,96213.88
2022-10-11T18:27:05.512Z,96208.47
2022-10-11T18:29:36.410Z,96217.09
2022-10-11T18:32:06.254Z,96212.78
2022-10-11T18:34:35.811Z,96207.91
2022-10-11T18:37:05.606Z,96206.81
2022-10-11T18:39:38.064Z,96206.00
2022-10-11T18:42:07.545Z,96209.53
2022-10-11T18:44:38.257Z,96206.25
2022-10-11T18:47:07.854Z,96204.34
2022-10-11T18:49:37.344Z,96203.81
2022-10-11T18:52:07.858Z,96204.59
2022-10-11T18:54:37.524Z,96206.75
2022-10-11T18:57:06.885Z,96214.03
2022-10-11T18:59:37.780Z,96214.28
2022-10-11T19:02:07.605Z,96208.88
2022-10-11T19:04:37.747Z,96212.63
2022-10-11T19:07:07.286Z,96215.31
2022-10-11T19:09:36.673Z,96213.16
2022-10-11T19:12:06.548Z,96221.50
2022-10-11T19:14:37.480Z,96217.19
2022-10-11T19:17:07.244Z,96208.28
2022-10-11T19:19:37.231Z,96205.06
2022-10-11T19:22:06.975Z,96210.19
2022-10-11T19:24:36.879Z,96205.84
2022-10-11T19:27:06.422Z,96202.09
2022-10-11T19:29:37.802Z,96205.06
2022-10-11T19:32:07.249Z,96203.72
2022-10-11T19:34:36.731Z,96202.38
2022-10-11T19:37:06.116Z,96199.94
2022-10-11T19:39:35.591Z,96208.59
2022-10-11T19:42:05.429Z,96202.38
2022-10-11T19:44:38.686Z,96205.34
2022-10-11T19:47:10.820Z,96208.06
2022-10-11T19:49:40.259Z,96211.81
2022-10-11T19:52:10.368Z,96214.53
2022-10-11T19:54:39.826Z,96209.94
2022-10-11T19:57:09.471Z,96210.19
2022-10-11T19:59:38.904Z,96218.03
2022-10-11T20:02:10.915Z,96206.97
2022-10-11T20:04:52.498Z,96212.94
2022-10-11T20:07:22.676Z,96207.81
2022-10-11T20:09:53.277Z,96215.94
2022-10-11T20:12:23.104Z,96210.81
2022-10-11T20:14:52.504Z,96207.56
2022-10-11T20:17:43.248Z,96213.75
2022-10-11T20:20:12.866Z,96218.34
2022-10-11T20:22:42.348Z,96212.44
2022-10-11T20:25:12.074Z,96208.13
2022-10-11T20:27:43.400Z,96212.69
2022-10-11T20:30:14.751Z,96213.78
2022-10-11T20:32:45.628Z,96208.63
2022-10-11T20:35:15.170Z,96215.66
2022-10-11T20:37:46.181Z,96203.47
2022-10-11T20:40:16.329Z,96213.75
2022-10-11T20:42:45.795Z,96214.81
2022-10-11T20:45:22.441Z,96208.88
2022-10-11T20:47:54.597Z,96214.53
2022-10-11T20:50:24.171Z,96209.13
2022-10-11T20:52:54.929Z,96207.78
2022-10-11T20:55:24.294Z,96205.09
2022-10-11T20:57:53.792Z,96203.75
2022-10-11T21:00:24.038Z,96208.06
2022-10-11T21:02:54.828Z,96207.25
2022-10-11T21:05:24.216Z,96211.59
2022-10-11T21:07:53.565Z,96205.38
2022-10-11T21:10:22.957Z,96209.69
2022-10-11T21:12:52.393Z,96209.69
2022-10-11T21:15:21.812Z,96210.50
2022-10-11T21:17:52.184Z,96207.53
2022-10-11T21:20:23.256Z,96207.81
2022-10-11T21:22:52.713Z,96202.69
2022-10-11T21:25:22.402Z,96207.25
2022-10-11T21:27:51.800Z,96205.38
2022-10-11T21:30:21.247Z,96210.22
2022-10-11T21:32:50.651Z,96216.69
2022-10-11T21:35:20.040Z,96210.75
2022-10-11T21:37:50.909Z,96207.75
2022-10-11T21:40:20.272Z,96204.50
2022-10-11T21:42:49.808Z,96202.09
2022-10-11T21:45:19.424Z,96208.56
2022-10-11T21:47:48.786Z,96200.47
2022-10-11T21:50:18.591Z,96196.69
2022-10-11T21:52:48.174Z,96198.56
2022-10-11T21:55:19.031Z,96203.16
2022-10-11T21:57:48.392Z,96195.06
2022-10-11T22:00:19.461Z,96197.22
2022-10-11T22:02:48.943Z,96199.13
2022-10-11T22:05:18.667Z,96201.28
2022-10-11T22:07:48.187Z,96191.56
2022-10-11T22:10:19.109Z,96198.03
2022-10-11T22:12:50.138Z,96188.03
2022-10-11T22:15:19.537Z,96192.38
2022-10-11T22:17:48.906Z,96190.47
2022-10-11T22:20:18.576Z,96194.00
2022-10-11T22:22:48.031Z,96194.81
2022-10-11T22:25:19.077Z,96185.91
2022-10-11T22:27:50.139Z,96188.84
2022-10-11T22:30:19.794Z,96188.31
2022-10-11T22:32:51.699Z,96175.06
2022-10-11T22:35:21.346Z,96181.56
2022-10-11T22:37:51.237Z,96184.50
2022-10-11T22:40:22.224Z,96182.88
2022-10-11T22:42:51.576Z,96178.00
2022-10-11T22:45:21.096Z,96177.72
2022-10-11T22:47:50.455Z,96179.06
2022-10-11T22:50:19.832Z,96179.31
2022-10-11T22:52:49.307Z,96177.16
2022-10-11T22:55:20.261Z,96172.81
2022-10-11T22:57:51.202Z,96174.19
2022-10-11T23:00:21.277Z,96182.56
2022-10-11T23:02:50.677Z,96175.53
2022-10-11T23:05:20.130Z,96179.81
2022-10-11T23:07:49.689Z,96185.47
2022-10-11T23:10:19.541Z,96179.53
2022-10-11T23:12:50.333Z,96182.75
2022-10-11T23:15:19.926Z,96187.59
2022-10-11T23:17:49.331Z,96185.69
2022-10-11T23:20:18.996Z,96191.03
2022-10-11T23:22:48.344Z,96186.97
2022-10-11T23:25:18.017Z,96192.63
2022-10-11T23:27:47.423Z,96188.06
2022-10-11T23:30:18.585Z,96189.69
2022-10-11T23:32:48.002Z,96192.38
2022-10-11T23:35:17.933Z,96199.13
2022-10-11T23:37:47.293Z,96192.66
2022-10-11T23:40:16.949Z,96197.81
2022-10-11T23:42:46.432Z,96201.31
2022-10-11T23:45:20.240Z,96202.69
2022-10-11T23:47:49.608Z,96201.59
2022-10-11T23:50:19.299Z,96198.38
2022-10-11T23:52:48.669Z,96199.19
2022-10-11T23:55:18.875Z,96198.94
2022-10-11T23:57:48.371Z,96191.66
